METAR Data
IDs: Format: Raw Decoded Include TAF

Data at: 2052 UTC 25 Oct 2021

UUEE 252030Z 23004MPS CAVOK 00/M04 Q1024 R24L/290045 R24C/290045 R24R/290051 NOSIG